sensor_id;sensor_type;location;lat;lon;timestamp;pressure;altitude;pressure_sealevel;temperature;humidity
21728;BME280;11026;50.560;17.852;2023-02-16T00:00:17;100476.09;;;-0.55;100.00
21728;BME280;11026;50.560;17.852;2023-02-16T00:02:46;100465.72;;;-0.53;100.00
21728;BME280;11026;50.560;17.852;2023-02-16T00:05:30;100462.94;;;-0.64;100.00
21728;BME280;11026;50.560;17.852;2023-02-16T00:07:59;100469.19;;;-0.53;100.00
21728;BME280;11026;50.560;17.852;2023-02-16T00:10:31;100463.06;;;-0.56;100.00
21728;BME280;11026;50.560;17.852;2023-02-16T00:12:59;100470.22;;;-0.43;100.00
21728;BME280;11026;50.560;17.852;2023-02-16T00:15:45;100470.97;;;-0.50;100.00
21728;BME280;11026;50.560;17.852;2023-02-16T00:18:20;100475.41;;;-0.43;100.00
21728;BME280;11026;50.560;17.852;2023-02-16T00:20:48;100468.44;;;-0.45;100.00
21728;BME280;11026;50.560;17.852;2023-02-16T00:23:15;100464.81;;;-0.55;100.00
21728;BME280;11026;50.560;17.852;2023-02-16T00:25:43;100454.50;;;-0.49;100.00
21728;BME280;11026;50.560;17.852;2023-02-16T00:28:19;100453.63;;;-0.50;100.00
21728;BME280;11026;50.560;17.852;2023-02-16T00:30:47;100450.19;;;-0.48;100.00
21728;BME280;11026;50.560;17.852;2023-02-16T00:33:19;100451.91;;;-0.51;100.00
21728;BME280;11026;50.560;17.852;2023-02-16T00:35:47;100441.44;;;-0.55;100.00
21728;BME280;11026;50.560;17.852;2023-02-16T00:38:15;100440.53;;;-0.57;100.00
21728;BME280;11026;50.560;17.852;2023-02-16T00:40:48;100447.50;;;-0.53;100.00
21728;BME280;11026;50.560;17.852;2023-02-16T00:43:29;100450.91;;;-0.57;100.00
21728;BME280;11026;50.560;17.852;2023-02-16T00:45:58;100448.38;;;-0.53;100.00
21728;BME280;11026;50.560;17.852;2023-02-16T00:48:25;100450.03;;;-0.59;100.00
21728;BME280;11026;50.560;17.852;2023-02-16T00:50:53;100443.13;;;-0.56;100.00
21728;BME280;11026;50.560;17.852;2023-02-16T00:53:20;100450.84;;;-0.63;100.00
21728;BME280;11026;50.560;17.852;2023-02-16T00:55:48;100444.84;;;-0.58;100.00
21728;BME280;11026;50.560;17.852;2023-02-16T00:58:23;100448.00;;;-0.77;100.00
21728;BME280;11026;50.560;17.852;2023-02-16T01:00:54;100449.66;;;-0.82;100.00
21728;BME280;11026;50.560;17.852;2023-02-16T01:03:23;100450.84;;;-0.62;100.00
21728;BME280;11026;50.560;17.852;2023-02-16T01:05:52;100445.03;;;-0.47;100.00
21728;BME280;11026;50.560;17.852;2023-02-16T01:08:40;100440.63;;;-0.51;100.00
21728;BME280;11026;50.560;17.852;2023-02-16T01:11:27;100440.41;;;-0.65;100.00
21728;BME280;11026;50.560;17.852;2023-02-16T01:13:55;100437.59;;;-0.77;100.00
21728;BME280;11026;50.560;17.852;2023-02-16T01:19:03;100444.53;;;-0.76;100.00
21728;BME280;11026;50.560;17.852;2023-02-16T01:21:32;100440.47;;;-0.60;100.00
21728;BME280;11026;50.560;17.852;2023-02-16T01:23:59;100429.94;;;-0.68;100.00
21728;BME280;11026;50.560;17.852;2023-02-16T01:26:28;100425.56;;;-0.72;100.00
21728;BME280;11026;50.560;17.852;2023-02-16T01:28:56;100421.91;;;-0.83;100.00
21728;BME280;11026;50.560;17.852;2023-02-16T01:31:23;100433.22;;;-0.80;100.00
21728;BME280;11026;50.560;17.852;2023-02-16T01:33:51;100435.16;;;-0.68;100.00
21728;BME280;11026;50.560;17.852;2023-02-16T01:36:27;100436.81;;;-0.71;100.00
21728;BME280;11026;50.560;17.852;2023-02-16T01:38:55;100435.81;;;-0.81;100.00
21728;BME280;11026;50.560;17.852;2023-02-16T01:44:03;100440.19;;;-0.79;100.00
21728;BME280;11026;50.560;17.852;2023-02-16T01:49:23;100434.88;;;-0.85;100.00
21728;BME280;11026;50.560;17.852;2023-02-16T01:52:27;100433.25;;;-0.78;100.00
21728;BME280;11026;50.560;17.852;2023-02-16T01:55:43;100426.41;;;-0.71;100.00
21728;BME280;11026;50.560;17.852;2023-02-16T02:03:21;100439.38;;;-0.75;100.00
21728;BME280;11026;50.560;17.852;2023-02-16T02:06:18;100435.88;;;-0.78;100.00
21728;BME280;11026;50.560;17.852;2023-02-16T02:08:52;100438.41;;;-0.80;100.00
21728;BME280;11026;50.560;17.852;2023-02-16T02:11:31;100442.75;;;-0.80;100.00
21728;BME280;11026;50.560;17.852;2023-02-16T02:14:10;100439.94;;;-0.94;100.00
21728;BME280;11026;50.560;17.852;2023-02-16T02:19:23;100440.66;;;-1.01;100.00
21728;BME280;11026;50.560;17.852;2023-02-16T02:22:18;100443.28;;;-1.00;100.00
21728;BME280;11026;50.560;17.852;2023-02-16T02:25:34;100441.34;;;-1.11;100.00
21728;BME280;11026;50.560;17.852;2023-02-16T02:34:27;100432.66;;;-1.13;100.00
21728;BME280;11026;50.560;17.852;2023-02-16T02:44:52;100424.75;;;-1.19;100.00
21728;BME280;11026;50.560;17.852;2023-02-16T02:47:21;100424.81;;;-1.16;100.00
21728;BME280;11026;50.560;17.852;2023-02-16T02:49:52;100423.88;;;-1.21;100.00
21728;BME280;11026;50.560;17.852;2023-02-16T02:52:21;100418.81;;;-1.12;100.00
21728;BME280;11026;50.560;17.852;2023-02-16T02:54:48;100413.63;;;-1.12;100.00
21728;BME280;11026;50.560;17.852;2023-02-16T02:57:47;100418.41;;;-1.35;100.00
21728;BME280;11026;50.560;17.852;2023-02-16T03:00:37;100416.16;;;-1.18;100.00
21728;BME280;11026;50.560;17.852;2023-02-16T03:03:40;100407.44;;;-1.19;100.00
21728;BME280;11026;50.560;17.852;2023-02-16T03:06:23;100405.63;;;-1.26;100.00
21728;BME280;11026;50.560;17.852;2023-02-16T03:09:01;100407.34;;;-1.27;100.00
21728;BME280;11026;50.560;17.852;2023-02-16T03:11:31;100405.63;;;-1.25;100.00
21728;BME280;11026;50.560;17.852;2023-02-16T03:14:23;100394.31;;;-1.28;100.00
21728;BME280;11026;50.560;17.852;2023-02-16T03:17:00;100397.00;;;-1.24;100.00
21728;BME280;11026;50.560;17.852;2023-02-16T03:19:50;100397.69;;;-1.34;100.00
21728;BME280;11026;50.560;17.852;2023-02-16T03:22:36;100398.56;;;-1.33;100.00
21728;BME280;11026;50.560;17.852;2023-02-16T03:25:31;100401.75;;;-1.48;100.00
21728;BME280;11026;50.560;17.852;2023-02-16T03:28:22;100401.13;;;-1.35;100.00
21728;BME280;11026;50.560;17.852;2023-02-16T03:31:20;100406.50;;;-1.26;100.00
21728;BME280;11026;50.560;17.852;2023-02-16T03:33:50;100398.63;;;-1.30;100.00
21728;BME280;11026;50.560;17.852;2023-02-16T03:36:26;100400.47;;;-1.23;100.00
21728;BME280;11026;50.560;17.852;2023-02-16T03:38:54;100401.13;;;-1.35;100.00
21728;BME280;11026;50.560;17.852;2023-02-16T03:41:24;100402.94;;;-1.31;100.00
21728;BME280;11026;50.560;17.852;2023-02-16T03:43:52;100401.34;;;-1.22;100.00
21728;BME280;11026;50.560;17.852;2023-02-16T03:46:20;100401.09;;;-1.38;100.00
21728;BME280;11026;50.560;17.852;2023-02-16T03:48:48;100398.50;;;-1.36;100.00
21728;BME280;11026;50.560;17.852;2023-02-16T03:51:15;100394.25;;;-1.31;100.00
21728;BME280;11026;50.560;17.852;2023-02-16T03:53:44;100396.09;;;-1.26;100.00
21728;BME280;11026;50.560;17.852;2023-02-16T03:56:12;100392.66;;;-1.25;100.00
21728;BME280;11026;50.560;17.852;2023-02-16T03:58:39;100394.13;;;-1.39;100.00
21728;BME280;11026;50.560;17.852;2023-02-16T04:01:06;100392.31;;;-1.44;100.00
21728;BME280;11026;50.560;17.852;2023-02-16T04:03:33;100391.63;;;-1.34;100.00
21728;BME280;11026;50.560;17.852;2023-02-16T04:06:02;100381.13;;;-1.40;100.00
21728;BME280;11026;50.560;17.852;2023-02-16T04:08:29;100389.72;;;-1.43;100.00
21728;BME280;11026;50.560;17.852;2023-02-16T04:10:57;100379.34;;;-1.43;100.00
21728;BME280;11026;50.560;17.852;2023-02-16T04:13:24;100377.38;;;-1.56;100.00
21728;BME280;11026;50.560;17.852;2023-02-16T04:15:52;100373.94;;;-1.55;100.00
21728;BME280;11026;50.560;17.852;2023-02-16T04:18:20;100377.16;;;-1.68;100.00
21728;BME280;11026;50.560;17.852;2023-02-16T04:20:47;100375.72;;;-1.51;100.00
21728;BME280;11026;50.560;17.852;2023-02-16T04:23:14;100367.94;;;-1.51;100.00
21728;BME280;11026;50.560;17.852;2023-02-16T04:25:42;100379.34;;;-1.43;100.00
21728;BME280;11026;50.560;17.852;2023-02-16T04:28:09;100380.25;;;-1.41;100.00
21728;BME280;11026;50.560;17.852;2023-02-16T04:30:37;100376.72;;;-1.46;100.00
21728;BME280;11026;50.560;17.852;2023-02-16T04:33:04;100372.69;;;-1.29;100.00
21728;BME280;11026;50.560;17.852;2023-02-16T04:35:33;100376.06;;;-1.34;100.00
21728;BME280;11026;50.560;17.852;2023-02-16T04:38:00;100366.69;;;-1.25;100.00
21728;BME280;11026;50.560;17.852;2023-02-16T04:40:29;100362.34;;;-1.26;100.00
21728;BME280;11026;50.560;17.852;2023-02-16T04:42:56;100374.28;;;-1.35;100.00
21728;BME280;11026;50.560;17.852;2023-02-16T04:45:24;100377.53;;;-1.47;100.00
21728;BME280;11026;50.560;17.852;2023-02-16T04:47:51;100387.25;;;-1.35;100.00
21728;BME280;11026;50.560;17.852;2023-02-16T04:50:19;100371.03;;;-1.24;100.00
21728;BME280;11026;50.560;17.852;2023-02-16T04:52:46;100371.81;;;-1.28;100.00
21728;BME280;11026;50.560;17.852;2023-02-16T04:55:16;100380.41;;;-1.33;100.00
21728;BME280;11026;50.560;17.852;2023-02-16T04:57:45;100373.50;;;-1.31;100.00
21728;BME280;11026;50.560;17.852;2023-02-16T05:00:15;100384.78;;;-1.31;100.00
21728;BME280;11026;50.560;17.852;2023-02-16T05:02:42;100370.06;;;-1.30;100.00
21728;BME280;11026;50.560;17.852;2023-02-16T05:05:09;100381.34;;;-1.28;100.00
21728;BME280;11026;50.560;17.852;2023-02-16T05:07:38;100387.03;;;-1.48;100.00
21728;BME280;11026;50.560;17.852;2023-02-16T05:10:06;100383.84;;;-1.33;100.00
21728;BME280;11026;50.560;17.852;2023-02-16T05:12:33;100384.78;;;-1.29;100.00
21728;BME280;11026;50.560;17.852;2023-02-16T05:15:19;100385.72;;;-1.26;100.00
21728;BME280;11026;50.560;17.852;2023-02-16T05:17:47;100390.63;;;-1.42;100.00
21728;BME280;11026;50.560;17.852;2023-02-16T05:20:17;100396.75;;;-1.37;100.00
21728;BME280;11026;50.560;17.852;2023-02-16T05:22:44;100388.97;;;-1.37;100.00
21728;BME280;11026;50.560;17.852;2023-02-16T05:25:12;100385.38;;;-1.44;100.00
21728;BME280;11026;50.560;17.852;2023-02-16T05:27:39;100384.44;;;-1.49;100.00
21728;BME280;11026;50.560;17.852;2023-02-16T05:30:08;100386.00;;;-1.57;100.00
21728;BME280;11026;50.560;17.852;2023-02-16T05:32:36;100390.25;;;-1.62;100.00
21728;BME280;11026;50.560;17.852;2023-02-16T05:35:04;100386.22;;;-1.46;100.00
21728;BME280;11026;50.560;17.852;2023-02-16T05:37:32;100380.81;;;-1.57;100.00
21728;BME280;11026;50.560;17.852;2023-02-16T05:40:00;100389.47;;;-1.57;100.00
21728;BME280;11026;50.560;17.852;2023-02-16T05:42:27;100389.28;;;-1.67;100.00
21728;BME280;11026;50.560;17.852;2023-02-16T05:44:54;100395.31;;;-1.68;100.00
21728;BME280;11026;50.560;17.852;2023-02-16T05:47:22;100391.16;;;-1.60;100.00
21728;BME280;11026;50.560;17.852;2023-02-16T05:49:49;100382.50;;;-1.59;100.00
21728;BME280;11026;50.560;17.852;2023-02-16T05:52:23;100395.44;;;-1.62;100.00
21728;BME280;11026;50.560;17.852;2023-02-16T05:54:50;100398.13;;;-1.56;100.00
21728;BME280;11026;50.560;17.852;2023-02-16T05:57:18;100394.75;;;-1.54;100.00
21728;BME280;11026;50.560;17.852;2023-02-16T05:59:45;100379.13;;;-1.55;100.00
21728;BME280;11026;50.560;17.852;2023-02-16T06:02:12;100392.06;;;-1.58;100.00
21728;BME280;11026;50.560;17.852;2023-02-16T06:04:40;100401.38;;;-1.66;100.00
21728;BME280;11026;50.560;17.852;2023-02-16T06:07:07;100396.34;;;-1.59;100.00
21728;BME280;11026;50.560;17.852;2023-02-16T06:09:40;100392.88;;;-1.61;100.00
21728;BME280;11026;50.560;17.852;2023-02-16T06:12:07;100393.91;;;-1.51;100.00
21728;BME280;11026;50.560;17.852;2023-02-16T06:14:36;100393.22;;;-1.42;100.00
21728;BME280;11026;50.560;17.852;2023-02-16T06:17:03;100400.09;;;-1.44;100.00
21728;BME280;11026;50.560;17.852;2023-02-16T06:19:32;100397.47;;;-1.46;100.00
21728;BME280;11026;50.560;17.852;2023-02-16T06:21:59;100407.44;;;-1.67;100.00
21728;BME280;11026;50.560;17.852;2023-02-16T06:24:28;100402.59;;;-1.49;100.00
21728;BME280;11026;50.560;17.852;2023-02-16T06:26:55;100395.84;;;-1.39;100.00
21728;BME280;11026;50.560;17.852;2023-02-16T06:29:23;100398.63;;;-1.29;100.00
21728;BME280;11026;50.560;17.852;2023-02-16T06:31:50;100396.91;;;-1.30;100.00
21728;BME280;11026;50.560;17.852;2023-02-16T06:34:18;100396.09;;;-1.26;100.00
21728;BME280;11026;50.560;17.852;2023-02-16T06:36:45;100392.59;;;-1.28;100.00
21728;BME280;11026;50.560;17.852;2023-02-16T06:39:12;100384.06;;;-1.22;100.00
21728;BME280;11026;50.560;17.852;2023-02-16T06:41:41;100395.25;;;-1.23;100.00
21728;BME280;11026;50.560;17.852;2023-02-16T06:44:10;100392.66;;;-1.23;100.00
21728;BME280;11026;50.560;17.852;2023-02-16T06:46:45;100395.25;;;-1.23;100.00
21728;BME280;11026;50.560;17.852;2023-02-16T06:49:16;100393.94;;;-1.00;100.00
21728;BME280;11026;50.560;17.852;2023-02-16T06:51:45;100390.66;;;-0.88;100.00
21728;BME280;11026;50.560;17.852;2023-02-16T06:54:15;100394.25;;;-0.81;100.00
21728;BME280;11026;50.560;17.852;2023-02-16T06:56:43;100389.16;;;-0.72;100.00
21728;BME280;11026;50.560;17.852;2023-02-16T06:59:11;100394.53;;;-0.61;100.00
21728;BME280;11026;50.560;17.852;2023-02-16T07:01:39;100391.13;;;-0.57;100.00
21728;BME280;11026;50.560;17.852;2023-02-16T07:04:09;100384.44;;;-0.43;100.00
21728;BME280;11026;50.560;17.852;2023-02-16T07:06:36;100394.00;;;-0.39;100.00
21728;BME280;11026;50.560;17.852;2023-02-16T07:09:05;100395.97;;;-0.22;100.00
21728;BME280;11026;50.560;17.852;2023-02-16T07:11:32;100396.13;;;-0.10;100.00
21728;BME280;11026;50.560;17.852;2023-02-16T07:14:00;100393.66;;;0.01;100.00
21728;BME280;11026;50.560;17.852;2023-02-16T07:16:27;100400.75;;;0.15;100.00
21728;BME280;11026;50.560;17.852;2023-02-16T07:18:55;100398.25;;;0.21;100.00
21728;BME280;11026;50.560;17.852;2023-02-16T07:21:22;100395.69;;;0.24;100.00
21728;BME280;11026;50.560;17.852;2023-02-16T07:23:50;100396.66;;;0.34;100.00
21728;BME280;11026;50.560;17.852;2023-02-16T07:26:17;100402.84;;;0.44;100.00
21728;BME280;11026;50.560;17.852;2023-02-16T07:28:45;100402.94;;;0.55;100.00
21728;BME280;11026;50.560;17.852;2023-02-16T07:31:15;100402.19;;;0.66;100.00
21728;BME280;11026;50.560;17.852;2023-02-16T07:33:43;100399.69;;;0.76;100.00
21728;BME280;11026;50.560;17.852;2023-02-16T07:36:12;100387.56;;;0.79;100.00
21728;BME280;11026;50.560;17.852;2023-02-16T07:38:39;100392.91;;;0.94;100.00
21728;BME280;11026;50.560;17.852;2023-02-16T07:41:08;100393.81;;;0.98;100.00
21728;BME280;11026;50.560;17.852;2023-02-16T07:43:37;100395.69;;;1.14;100.00
21728;BME280;11026;50.560;17.852;2023-02-16T07:46:04;100401.03;;;1.33;100.00
21728;BME280;11026;50.560;17.852;2023-02-16T07:48:32;100395.88;;;1.42;100.00
21728;BME280;11026;50.560;17.852;2023-02-16T07:50:59;100402.91;;;1.52;100.00
21728;BME280;11026;50.560;17.852;2023-02-16T07:53:29;100402.06;;;1.56;99.72
21728;BME280;11026;50.560;17.852;2023-02-16T07:55:56;100409.06;;;1.59;99.15
21728;BME280;11026;50.560;17.852;2023-02-16T07:58:23;100406.50;;;1.66;99.06
21728;BME280;11026;50.560;17.852;2023-02-16T08:01:07;100407.41;;;1.76;99.10
21728;BME280;11026;50.560;17.852;2023-02-16T08:03:34;100401.41;;;1.91;98.88
21728;BME280;11026;50.560;17.852;2023-02-16T08:06:02;100412.78;;;2.02;97.70
21728;BME280;11026;50.560;17.852;2023-02-16T08:08:30;100406.72;;;2.06;96.80
21728;BME280;11026;50.560;17.852;2023-02-16T08:10:59;100412.84;;;2.19;96.71
21728;BME280;11026;50.560;17.852;2023-02-16T08:13:28;100399.81;;;2.31;95.41
21728;BME280;11026;50.560;17.852;2023-02-16T08:15:56;100403.34;;;2.47;94.82
21728;BME280;11026;50.560;17.852;2023-02-16T08:18:23;100400.75;;;2.50;93.74
21728;BME280;11026;50.560;17.852;2023-02-16T08:20:50;100410.38;;;2.69;93.81
21728;BME280;11026;50.560;17.852;2023-02-16T08:23:31;100410.38;;;2.85;92.72
21728;BME280;11026;50.560;17.852;2023-02-16T08:25:58;100409.56;;;3.01;91.16
21728;BME280;11026;50.560;17.852;2023-02-16T08:28:32;100397.34;;;3.06;89.76
21728;BME280;11026;50.560;17.852;2023-02-16T08:31:04;100404.31;;;3.10;89.44
21728;BME280;11026;50.560;17.852;2023-02-16T08:33:33;100402.59;;;3.37;89.41
21728;BME280;11026;50.560;17.852;2023-02-16T08:36:00;100399.94;;;3.61;87.61
21728;BME280;11026;50.560;17.852;2023-02-16T08:38:30;100407.75;;;3.67;85.52
21728;BME280;11026;50.560;17.852;2023-02-16T08:41:02;100410.34;;;3.86;85.83
21728;BME280;11026;50.560;17.852;2023-02-16T08:43:30;100415.53;;;3.95;84.49
21728;BME280;11026;50.560;17.852;2023-02-16T08:46:06;100405.84;;;4.15;82.48
21728;BME280;11026;50.560;17.852;2023-02-16T08:48:37;100399.78;;;4.16;81.62
21728;BME280;11026;50.560;17.852;2023-02-16T08:51:06;100387.50;;;4.25;81.62
21728;BME280;11026;50.560;17.852;2023-02-16T08:53:34;100390.09;;;4.29;80.54
21728;BME280;11026;50.560;17.852;2023-02-16T08:56:02;100393.56;;;4.31;80.16
21728;BME280;11026;50.560;17.852;2023-02-16T08:58:30;100393.53;;;4.39;79.46
21728;BME280;11026;50.560;17.852;2023-02-16T09:01:03;100403.09;;;4.52;79.48
21728;BME280;11026;50.560;17.852;2023-02-16T09:03:31;100401.22;;;4.73;78.16
21728;BME280;11026;50.560;17.852;2023-02-16T09:06:01;100393.22;;;4.89;77.79
21728;BME280;11026;50.560;17.852;2023-02-16T09:08:32;100393.16;;;5.00;76.62
21728;BME280;11026;50.560;17.852;2023-02-16T09:11:13;100392.19;;;5.10;76.18
21728;BME280;11026;50.560;17.852;2023-02-16T09:13:43;100395.44;;;5.40;75.69
21728;BME280;11026;50.560;17.852;2023-02-16T09:16:14;100398.50;;;5.82;74.16
21728;BME280;11026;50.560;17.852;2023-02-16T09:18:42;100389.19;;;6.35;71.18
21728;BME280;11026;50.560;17.852;2023-02-16T09:21:14;100389.16;;;6.97;68.48
21728;BME280;11026;50.560;17.852;2023-02-16T09:23:44;100387.53;;;7.42;66.08
21728;BME280;11026;50.560;17.852;2023-02-16T09:26:16;100391.69;;;8.02;64.88
21728;BME280;11026;50.560;17.852;2023-02-16T09:28:46;100393.00;;;8.23;62.73
21728;BME280;11026;50.560;17.852;2023-02-16T09:31:17;100385.47;;;8.49;61.50
21728;BME280;11026;50.560;17.852;2023-02-16T09:34:00;100383.38;;;8.64;60.94
21728;BME280;11026;50.560;17.852;2023-02-16T09:36:28;100378.47;;;8.87;60.13
21728;BME280;11026;50.560;17.852;2023-02-16T09:38:57;100384.53;;;9.60;59.43
21728;BME280;11026;50.560;17.852;2023-02-16T09:41:47;100379.94;;;9.67;57.65
21728;BME280;11026;50.560;17.852;2023-02-16T09:44:50;100376.50;;;9.96;56.47
21728;BME280;11026;50.560;17.852;2023-02-16T09:47:32;100372.06;;;9.97;55.22
21728;BME280;11026;50.560;17.852;2023-02-16T09:50:24;100379.09;;;9.67;55.51
21728;BME280;11026;50.560;17.852;2023-02-16T09:53:51;100371.72;;;10.09;56.00
21728;BME280;11026;50.560;17.852;2023-02-16T09:56:34;100371.22;;;10.57;54.40
21728;BME280;11026;50.560;17.852;2023-02-16T10:04:49;100366.28;;;11.29;52.34
21728;BME280;11026;50.560;17.852;2023-02-16T10:07:56;100365.44;;;10.74;53.07
21728;BME280;11026;50.560;17.852;2023-02-16T10:10:39;100360.88;;;11.05;53.63
21728;BME280;11026;50.560;17.852;2023-02-16T10:13:20;100358.97;;;10.82;51.79
21728;BME280;11026;50.560;17.852;2023-02-16T10:15:50;100352.53;;;10.63;52.18
21728;BME280;11026;50.560;17.852;2023-02-16T10:18:36;100348.53;;;10.19;54.48
21728;BME280;11026;50.560;17.852;2023-02-16T10:21:11;100343.47;;;10.98;52.92
21728;BME280;11026;50.560;17.852;2023-02-16T10:26:24;100357.31;;;9.57;54.30
21728;BME280;11026;50.560;17.852;2023-02-16T10:28:58;100356.53;;;9.53;54.99
21728;BME280;11026;50.560;17.852;2023-02-16T10:31:35;100354.06;;;10.11;54.88
21728;BME280;11026;50.560;17.852;2023-02-16T10:43:22;100332.28;;;11.67;50.08
21728;BME280;11026;50.560;17.852;2023-02-16T10:45:55;100328.28;;;11.30;51.72
21728;BME280;11026;50.560;17.852;2023-02-16T10:48:25;100324.47;;;12.12;50.10
21728;BME280;11026;50.560;17.852;2023-02-16T10:51:00;100336.59;;;11.94;49.51
21728;BME280;11026;50.560;17.852;2023-02-16T10:53:50;100332.69;;;12.51;50.26
21728;BME280;11026;50.560;17.852;2023-02-16T10:56:29;100336.16;;;12.30;48.43
21728;BME280;11026;50.560;17.852;2023-02-16T10:59:06;100327.75;;;11.45;50.35
21728;BME280;11026;50.560;17.852;2023-02-16T11:01:39;100329.59;;;12.40;48.85
21728;BME280;11026;50.560;17.852;2023-02-16T11:04:28;100325.50;;;13.19;47.22
21728;BME280;11026;50.560;17.852;2023-02-16T11:07:05;100335.19;;;12.98;47.20
21728;BME280;11026;50.560;17.852;2023-02-16T11:09:33;100329.44;;;13.72;47.48
21728;BME280;11026;50.560;17.852;2023-02-16T11:12:12;100326.25;;;13.01;47.65
21728;BME280;11026;50.560;17.852;2023-02-16T11:14:47;100320.69;;;12.85;48.33
21728;BME280;11026;50.560;17.852;2023-02-16T11:17:16;100323.00;;;12.03;48.34
21728;BME280;11026;50.560;17.852;2023-02-16T11:19:55;100310.66;;;12.26;49.62
21728;BME280;11026;50.560;17.852;2023-02-16T11:24:54;100310.81;;;12.67;47.89
21728;BME280;11026;50.560;17.852;2023-02-16T11:27:23;100307.56;;;12.60;47.95
21728;BME280;11026;50.560;17.852;2023-02-16T11:29:50;100302.38;;;12.57;47.51
21728;BME280;11026;50.560;17.852;2023-02-16T11:32:38;100308.88;;;12.03;47.79
21728;BME280;11026;50.560;17.852;2023-02-16T11:35:08;100308.91;;;11.78;49.18
21728;BME280;11026;50.560;17.852;2023-02-16T11:37:39;100300.97;;;13.13;48.29
21728;BME280;11026;50.560;17.852;2023-02-16T11:40:22;100305.22;;;13.98;45.21
21728;BME280;11026;50.560;17.852;2023-02-16T11:42:55;100301.31;;;14.43;44.70
21728;BME280;11026;50.560;17.852;2023-02-16T11:45:31;100298.16;;;14.73;43.79
21728;BME280;11026;50.560;17.852;2023-02-16T11:48:11;100309.78;;;15.24;42.86
21728;BME280;11026;50.560;17.852;2023-02-16T11:50:55;100296.63;;;15.73;42.72
21728;BME280;11026;50.560;17.852;2023-02-16T11:53:27;100296.16;;;14.95;41.22
21728;BME280;11026;50.560;17.852;2023-02-16T11:56:28;100288.38;;;15.60;41.68
21728;BME280;11026;50.560;17.852;2023-02-16T11:59:16;100281.91;;;16.78;40.74
21728;BME280;11026;50.560;17.852;2023-02-16T12:04:53;100300.47;;;16.01;40.18
21728;BME280;11026;50.560;17.852;2023-02-16T12:07:28;100290.94;;;15.79;40.39
21728;BME280;11026;50.560;17.852;2023-02-16T12:10:29;100294.72;;;16.08;39.20
21728;BME280;11026;50.560;17.852;2023-02-16T12:13:31;100286.75;;;15.06;40.21
21728;BME280;11026;50.560;17.852;2023-02-16T12:19:01;100271.88;;;15.36;41.09
21728;BME280;11026;50.560;17.852;2023-02-16T12:21:46;100271.72;;;14.68;41.34
21728;BME280;11026;50.560;17.852;2023-02-16T12:24:39;100271.06;;;14.99;40.63
21728;BME280;11026;50.560;17.852;2023-02-16T12:27:23;100263.56;;;16.09;40.35
21728;BME280;11026;50.560;17.852;2023-02-16T12:44:11;100251.81;;;16.59;38.40
21728;BME280;11026;50.560;17.852;2023-02-16T12:46:43;100251.41;;;16.35;38.41
21728;BME280;11026;50.560;17.852;2023-02-16T12:49:24;100241.84;;;15.15;40.04
21728;BME280;11026;50.560;17.852;2023-02-16T12:52:00;100238.75;;;14.54;41.05
21728;BME280;11026;50.560;17.852;2023-02-16T12:57:49;100229.22;;;14.67;41.94
21728;BME280;11026;50.560;17.852;2023-02-16T13:00:46;100234.28;;;13.97;42.89
21728;BME280;11026;50.560;17.852;2023-02-16T13:03:37;100231.72;;;14.15;42.64
21728;BME280;11026;50.560;17.852;2023-02-16T13:06:37;100218.19;;;14.38;42.47
21728;BME280;11026;50.560;17.852;2023-02-16T13:09:31;100228.97;;;13.60;42.45
21728;BME280;11026;50.560;17.852;2023-02-16T13:12:16;100217.63;;;13.75;43.67
21728;BME280;11026;50.560;17.852;2023-02-16T13:15:45;100224.16;;;14.24;43.26
21728;BME280;11026;50.560;17.852;2023-02-16T13:18:26;100226.94;;;14.59;42.91
21728;BME280;11026;50.560;17.852;2023-02-16T13:21:06;100220.19;;;14.52;42.86
21728;BME280;11026;50.560;17.852;2023-02-16T13:29:38;100212.94;;;13.61;44.61
21728;BME280;11026;50.560;17.852;2023-02-16T13:32:43;100221.53;;;12.86;45.85
21728;BME280;11026;50.560;17.852;2023-02-16T13:35:40;100219.66;;;12.68;47.63
21728;BME280;11026;50.560;17.852;2023-02-16T13:38:35;100220.19;;;11.88;49.06
21728;BME280;11026;50.560;17.852;2023-02-16T13:44:21;100211.75;;;11.77;50.33
21728;BME280;11026;50.560;17.852;2023-02-16T13:46:51;100211.19;;;11.69;49.39
21728;BME280;11026;50.560;17.852;2023-02-16T13:49:54;100212.50;;;11.57;50.49
21728;BME280;11026;50.560;17.852;2023-02-16T13:52:43;100218.78;;;12.01;50.32
21728;BME280;11026;50.560;17.852;2023-02-16T13:55:29;100217.84;;;12.02;49.54
21728;BME280;11026;50.560;17.852;2023-02-16T13:58:02;100219.09;;;11.94;49.16
21728;BME280;11026;50.560;17.852;2023-02-16T14:00:57;100208.00;;;11.84;49.08
21728;BME280;11026;50.560;17.852;2023-02-16T14:05:54;100222.75;;;11.18;51.26
21728;BME280;11026;50.560;17.852;2023-02-16T14:08:26;100218.00;;;10.77;51.61
21728;BME280;11026;50.560;17.852;2023-02-16T14:10:54;100213.34;;;10.84;51.71
21728;BME280;11026;50.560;17.852;2023-02-16T14:13:27;100221.97;;;10.36;52.14
21728;BME280;11026;50.560;17.852;2023-02-16T14:15:57;100222.41;;;10.22;53.79
21728;BME280;11026;50.560;17.852;2023-02-16T14:21:41;100209.78;;;10.32;53.56
21728;BME280;11026;50.560;17.852;2023-02-16T14:24:30;100209.59;;;10.38;53.82
21728;BME280;11026;50.560;17.852;2023-02-16T14:27:04;100207.25;;;10.55;54.37
21728;BME280;11026;50.560;17.852;2023-02-16T14:29:43;100204.09;;;10.71;54.33
21728;BME280;11026;50.560;17.852;2023-02-16T14:34:53;100210.06;;;11.02;52.79
21728;BME280;11026;50.560;17.852;2023-02-16T14:37:38;100215.34;;;11.52;52.72
21728;BME280;11026;50.560;17.852;2023-02-16T14:40:14;100206.47;;;11.77;52.97
21728;BME280;11026;50.560;17.852;2023-02-16T14:42:55;100202.09;;;12.21;51.14